Time;durP1;ratioP1;P1;durP2;ratioP2;P2;SDS_P1;SDS_P2;PMS_P1;PMS_P2;Temp;Humidity;BMP_temperature;BMP_pressure;BME280_temperature;BME280_humidity;BME280_pressure;Samples;Min_cycle;Max_cycle;Signal;HPM_P1;HPM_P2
2022/10/30 00:00:34;;;;;;;10.60;4.50;;;16.20;99.90;;;;;;5012428;28;20148;-78
2022/10/30 00:02:59;;;;;;;9.95;4.55;;;16.10;99.90;;;;;;5011830;28;20450;-79
2022/10/30 00:05:25;;;;;;;6.95;4.60;;;16.10;99.90;;;;;;5012332;28;20061;-77
2022/10/30 00:07:54;;;;;;;7.43;4.32;;;16.00;99.90;;;;;;5012359;28;20049;-78
2022/10/30 00:10:20;;;;;;;6.63;4.40;;;15.90;99.90;;;;;;5012232;28;20139;-78
2022/10/30 00:12:45;;;;;;;9.05;4.30;;;15.80;99.90;;;;;;5011205;28;20108;-78
2022/10/30 00:15:11;;;;;;;7.90;4.82;;;15.70;99.90;;;;;;5012908;28;20048;-78
2022/10/30 00:17:37;;;;;;;8.82;4.50;;;15.70;99.90;;;;;;4994832;28;20529;-78
2022/10/30 00:20:03;;;;;;;8.48;4.53;;;15.60;99.90;;;;;;5011288;28;20084;-78
2022/10/30 00:22:29;;;;;;;6.32;4.55;;;15.60;99.90;;;;;;5011810;28;20514;-78
2022/10/30 00:24:54;;;;;;;9.20;4.63;;;15.50;99.90;;;;;;5011856;28;20050;-78
2022/10/30 00:27:20;;;;;;;8.60;4.88;;;15.60;99.90;;;;;;5031468;28;20049;-78
2022/10/30 00:29:45;;;;;;;8.55;4.20;;;15.60;99.90;;;;;;5022496;28;20057;-78
2022/10/30 00:32:11;;;;;;;9.15;4.35;;;15.60;99.90;;;;;;5011709;28;20042;-78
2022/10/30 00:34:37;;;;;;;7.03;4.38;;;15.60;99.90;;;;;;5011840;28;20046;-77
2022/10/30 00:37:02;;;;;;;8.63;4.80;;;15.60;99.90;;;;;;5012025;28;20121;-78
2022/10/30 00:39:28;;;;;;;6.32;4.50;;;15.70;99.90;;;;;;4992433;28;20427;-78
2022/10/30 00:41:54;;;;;;;8.02;4.57;;;15.60;99.90;;;;;;4994543;28;20487;-76
2022/10/30 00:44:35;;;;;;;9.13;4.20;;;15.60;99.90;;;;;;5011234;28;20112;-76
2022/10/30 00:47:05;;;;;;;7.93;4.88;;;15.70;99.90;;;;;;4993495;28;20057;-77
2022/10/30 00:49:37;;;;;;;7.45;4.35;;;15.70;99.90;;;;;;5011650;28;20056;-77
2022/10/30 00:52:07;;;;;;;7.70;4.60;;;15.70;99.90;;;;;;5011326;28;20038;-78
2022/10/30 00:54:35;;;;;;;7.22;4.07;;;15.70;99.90;;;;;;5003368;28;20107;-77
2022/10/30 00:57:03;;;;;;;8.48;4.78;;;15.70;99.90;;;;;;5006880;28;20058;-78
2022/10/30 00:59:31;;;;;;;8.85;4.72;;;15.60;99.90;;;;;;5011591;28;20578;-78
2022/10/30 01:01:59;;;;;;;7.57;4.40;;;15.50;99.90;;;;;;5012899;28;20058;-78
2022/10/30 01:04:25;;;;;;;10.45;4.55;;;15.40;99.90;;;;;;5011350;28;20042;-79
2022/10/30 01:06:52;;;;;;;7.88;4.35;;;15.30;99.90;;;;;;5011067;28;20053;-78
2022/10/30 01:09:21;;;;;;;8.75;4.93;;;15.20;99.90;;;;;;5011043;28;20117;-78
2022/10/30 01:11:47;;;;;;;10.35;5.20;;;15.20;99.90;;;;;;4993844;28;20046;-77
2022/10/30 01:14:17;;;;;;;10.10;4.63;;;15.10;99.90;;;;;;5016331;28;20038;-78
2022/10/30 01:16:51;;;;;;;7.40;4.50;;;15.20;99.90;;;;;;5013889;28;20502;-78
2022/10/30 01:19:54;;;;;;;8.68;4.85;;;15.20;99.90;;;;;;5011199;28;20038;-78
2022/10/30 01:22:22;;;;;;;7.70;4.50;;;15.10;99.90;;;;;;5011299;28;20050;-78
2022/10/30 01:24:57;;;;;;;8.23;4.28;;;15.20;99.90;;;;;;5011110;28;20454;-78
2022/10/30 01:27:40;;;;;;;7.53;4.50;;;15.20;99.90;;;;;;5019291;28;20054;-78
2022/10/30 01:30:52;;;;;;;9.18;5.05;;;15.20;99.90;;;;;;5010805;28;20634;-79
2022/10/30 01:33:45;;;;;;;8.77;4.55;;;15.20;99.90;;;;;;5012517;28;20129;-78
2022/10/30 01:36:17;;;;;;;7.82;4.20;;;15.20;99.90;;;;;;5010835;28;20150;-78
2022/10/30 01:39:10;;;;;;;8.20;4.53;;;15.20;99.90;;;;;;5010821;28;20120;-78
2022/10/30 01:41:35;;;;;;;9.43;4.43;;;15.20;99.90;;;;;;5010991;28;20088;-79
2022/10/30 01:44:06;;;;;;;7.40;4.18;;;15.20;99.90;;;;;;5009324;28;20506;-78
2022/10/30 01:46:52;;;;;;;7.05;4.47;;;15.20;99.90;;;;;;5010786;28;20455;-79
2022/10/30 01:49:42;;;;;;;8.20;4.63;;;15.10;99.90;;;;;;5003983;28;20053;-78
2022/10/30 01:52:19;;;;;;;10.50;4.57;;;15.10;99.90;;;;;;5010850;28;20049;-77
2022/10/30 01:54:56;;;;;;;9.05;4.50;;;15.10;99.90;;;;;;5011187;28;20086;-78
2022/10/30 01:58:04;;;;;;;10.95;4.80;;;15.00;99.90;;;;;;4995181;28;20045;-79
2022/10/30 02:00:30;;;;;;;10.60;4.75;;;15.00;99.90;;;;;;4994423;28;20076;-78
2022/10/30 02:02:56;;;;;;;8.35;4.57;;;14.90;99.90;;;;;;5010028;28;20038;-78
2022/10/30 02:05:34;;;;;;;7.82;4.43;;;15.00;99.90;;;;;;5014410;28;20053;-78
2022/10/30 02:08:00;;;;;;;9.00;4.78;;;15.00;99.90;;;;;;5022552;28;20057;-78
2022/10/30 02:10:27;;;;;;;7.35;4.10;;;15.00;99.90;;;;;;5014426;28;20054;-78
2022/10/30 02:12:53;;;;;;;11.27;5.28;;;15.00;99.90;;;;;;5014040;28;20052;-79
2022/10/30 02:15:19;;;;;;;10.25;5.30;;;15.00;99.90;;;;;;5014423;28;20049;-79
2022/10/30 02:17:44;;;;;;;6.75;4.63;;;15.10;99.90;;;;;;5014441;28;20050;-79
2022/10/30 02:20:18;;;;;;;8.52;4.82;;;15.10;99.90;;;;;;4996919;28;20070;-78
2022/10/30 02:22:44;;;;;;;8.05;4.10;;;15.10;99.90;;;;;;5014404;28;20380;-78
2022/10/30 02:25:09;;;;;;;7.20;4.53;;;15.10;99.90;;;;;;5013993;28;20053;-78
2022/10/30 02:27:35;;;;;;;9.50;5.07;;;15.00;99.90;;;;;;5014197;28;20060;-78
2022/10/30 02:30:01;;;;;;;8.43;4.63;;;15.00;99.90;;;;;;5013848;28;20042;-78
2022/10/30 02:32:26;;;;;;;10.75;5.20;;;15.00;99.90;;;;;;5014385;28;20060;-79
2022/10/30 02:34:52;;;;;;;7.35;4.90;;;15.00;99.90;;;;;;5014029;28;20048;-78
2022/10/30 02:37:18;;;;;;;8.00;4.25;;;15.00;99.90;;;;;;5014205;28;20479;-78
2022/10/30 02:39:43;;;;;;;8.52;4.72;;;15.00;99.90;;;;;;5013848;28;20062;-78
2022/10/30 02:42:10;;;;;;;7.68;4.53;;;15.00;99.90;;;;;;5017372;28;20153;-78
2022/10/30 02:44:36;;;;;;;8.68;4.80;;;15.10;99.90;;;;;;5013346;28;20069;-79
2022/10/30 02:47:01;;;;;;;6.85;4.05;;;15.10;99.90;;;;;;4996380;28;20054;-78
2022/10/30 02:49:27;;;;;;;8.70;4.30;;;15.10;99.90;;;;;;5013710;28;20054;-78
2022/10/30 02:51:53;;;;;;;7.70;4.40;;;15.10;99.90;;;;;;5014007;28;20048;-79
2022/10/30 02:54:18;;;;;;;9.20;4.75;;;15.00;99.90;;;;;;5013201;28;20078;-78
2022/10/30 02:56:44;;;;;;;7.90;4.65;;;15.00;99.90;;;;;;5014055;28;20049;-78
2022/10/30 02:59:10;;;;;;;9.05;4.13;;;15.00;99.90;;;;;;4993016;28;20069;-78
2022/10/30 03:01:35;;;;;;;8.85;4.60;;;15.00;99.90;;;;;;4991020;28;20054;-78
2022/10/30 03:04:01;;;;;;;7.97;4.38;;;14.80;99.90;;;;;;5012242;28;20042;-78
2022/10/30 03:06:26;;;;;;;6.43;4.72;;;14.80;99.90;;;;;;5013709;28;20042;-78
2022/10/30 03:08:52;;;;;;;8.30;4.50;;;14.70;99.90;;;;;;5012587;28;20100;-78
2022/10/30 03:11:19;;;;;;;9.02;4.45;;;14.70;99.90;;;;;;5013928;28;20501;-77
2022/10/30 03:13:46;;;;;;;8.15;4.45;;;14.60;99.90;;;;;;4995452;28;20061;-77
2022/10/30 03:16:20;;;;;;;9.10;4.47;;;14.70;99.90;;;;;;4995675;28;20060;-78
2022/10/30 03:18:47;;;;;;;7.50;4.95;;;14.60;99.90;;;;;;5013089;28;20053;-77
2022/10/30 03:21:18;;;;;;;8.95;5.28;;;14.60;99.90;;;;;;4995732;28;20054;-77
2022/10/30 03:23:44;;;;;;;7.75;4.35;;;14.50;99.90;;;;;;5012958;28;20049;-77
2022/10/30 03:26:09;;;;;;;7.82;4.68;;;14.40;99.90;;;;;;5013188;28;20061;-77
2022/10/30 03:28:35;;;;;;;8.55;4.47;;;14.30;99.90;;;;;;5013261;28;20037;-77
2022/10/30 03:31:07;;;;;;;8.00;4.43;;;14.20;99.90;;;;;;4977522;28;20057;-78
2022/10/30 03:33:33;;;;;;;8.98;4.93;;;14.10;99.90;;;;;;5011347;28;20099;-77
2022/10/30 03:35:59;;;;;;;5.57;4.25;;;14.00;99.90;;;;;;5011176;28;20046;-78
2022/10/30 03:38:25;;;;;;;7.63;4.85;;;14.00;99.90;;;;;;5007272;28;20057;-77
2022/10/30 03:40:51;;;;;;;10.90;4.45;;;14.00;99.90;;;;;;5014712;28;20106;-78
2022/10/30 03:43:17;;;;;;;9.55;5.07;;;14.00;99.90;;;;;;4994496;28;20058;-77
2022/10/30 03:45:51;;;;;;;10.77;5.40;;;14.00;99.90;;;;;;5012959;28;20049;-76
2022/10/30 03:48:18;;;;;;;8.52;5.30;;;14.00;99.90;;;;;;5012376;28;20115;-78
2022/10/30 03:50:44;;;;;;;8.57;4.88;;;14.00;99.90;;;;;;5012799;28;20046;-79
2022/10/30 03:53:10;;;;;;;9.77;5.13;;;14.00;99.90;;;;;;5012804;28;20536;-78
2022/10/30 03:55:36;;;;;;;8.20;4.75;;;14.00;99.90;;;;;;5012787;28;20132;-78
2022/10/30 03:58:01;;;;;;;8.38;4.55;;;14.00;99.90;;;;;;5012649;28;20042;-78
2022/10/30 04:00:27;;;;;;;7.82;4.90;;;14.00;99.90;;;;;;5012431;28;20041;-78
2022/10/30 04:02:53;;;;;;;9.05;4.82;;;14.10;99.90;;;;;;5012585;28;20100;-76
2022/10/30 04:05:21;;;;;;;8.93;4.97;;;14.10;99.90;;;;;;5012315;28;20115;-77
2022/10/30 04:07:47;;;;;;;7.55;4.72;;;14.00;99.90;;;;;;5012314;28;20125;-77
2022/10/30 04:10:13;;;;;;;8.40;5.22;;;14.00;99.90;;;;;;5011840;28;20490;-76
2022/10/30 04:12:39;;;;;;;10.20;5.15;;;13.90;99.90;;;;;;4991067;28;20112;-77
2022/10/30 04:15:06;;;;;;;6.88;4.75;;;13.90;99.90;;;;;;5005919;28;20045;-77
2022/10/30 04:17:32;;;;;;;8.23;4.90;;;13.80;99.90;;;;;;5012015;28;20078;-77
2022/10/30 04:19:58;;;;;;;9.23;5.43;;;13.80;99.90;;;;;;5011633;28;20092;-78
2022/10/30 04:22:24;;;;;;;7.55;5.15;;;13.80;99.90;;;;;;5012197;28;20391;-77
2022/10/30 04:24:49;;;;;;;7.95;4.63;;;13.90;99.90;;;;;;5011650;28;20069;-78
2022/10/30 04:27:15;;;;;;;8.65;5.10;;;13.90;99.90;;;;;;5012170;28;20052;-76
2022/10/30 04:29:41;;;;;;;7.82;5.30;;;13.90;99.90;;;;;;5011807;28;20125;-77
2022/10/30 04:32:08;;;;;;;9.32;4.80;;;13.90;99.90;;;;;;5010809;28;20084;-77
2022/10/30 04:34:34;;;;;;;7.03;4.78;;;13.90;99.90;;;;;;5011938;28;20052;-76
2022/10/30 04:36:59;;;;;;;8.40;4.82;;;13.90;99.90;;;;;;5011889;28;20049;-77
2022/10/30 04:39:25;;;;;;;7.85;5.07;;;13.90;99.90;;;;;;5011432;28;20056;-76
2022/10/30 04:41:51;;;;;;;9.18;5.32;;;13.90;99.90;;;;;;5025350;28;20081;-76
2022/10/30 04:44:16;;;;;;;12.52;5.63;;;13.90;99.90;;;;;;4996888;28;20137;-76
2022/10/30 04:46:42;;;;;;;10.82;5.20;;;13.80;99.90;;;;;;5008906;28;20054;-77
2022/10/30 04:49:08;;;;;;;7.80;5.05;;;13.90;99.90;;;;;;5011659;28;20049;-75
2022/10/30 04:51:34;;;;;;;8.73;4.93;;;13.80;99.90;;;;;;4994399;28;20083;-75
2022/10/30 04:53:59;;;;;;;7.75;4.65;;;13.80;99.90;;;;;;5011729;28;20502;-75
2022/10/30 04:56:25;;;;;;;8.07;4.30;;;13.80;99.90;;;;;;5011650;28;20065;-75
2022/10/30 04:58:52;;;;;;;6.43;4.90;;;13.60;99.90;;;;;;5011433;28;20038;-75
2022/10/30 05:01:18;;;;;;;11.20;5.22;;;13.50;99.90;;;;;;5011283;28;20119;-75
2022/10/30 05:03:44;;;;;;;7.80;4.72;;;13.50;99.90;;;;;;5011450;28;20048;-76
2022/10/30 05:06:23;;;;;;;9.23;4.80;;;13.40;99.90;;;;;;5009850;28;20054;-76
2022/10/30 05:08:49;;;;;;;7.88;5.28;;;13.50;99.90;;;;;;5011150;28;20517;-76
2022/10/30 05:11:16;;;;;;;9.35;5.20;;;13.40;99.90;;;;;;5011665;28;20054;-76
2022/10/30 05:13:41;;;;;;;8.15;4.78;;;13.40;99.90;;;;;;5010858;28;20044;-76
2022/10/30 05:16:07;;;;;;;8.73;5.30;;;13.30;99.90;;;;;;5011480;28;20049;-76
2022/10/30 05:18:33;;;;;;;9.63;5.28;;;13.30;99.90;;;;;;5011003;28;20113;-76
2022/10/30 05:20:58;;;;;;;11.20;6.05;;;13.30;99.90;;;;;;5011124;28;20041;-75
2022/10/30 05:23:24;;;;;;;8.43;5.00;;;13.30;99.90;;;;;;5011276;28;20451;-76
2022/10/30 05:25:49;;;;;;;9.98;5.40;;;13.20;99.90;;;;;;5011760;28;20049;-76
2022/10/30 05:28:15;;;;;;;9.23;5.45;;;13.20;99.90;;;;;;5011178;28;20070;-76
2022/10/30 05:30:41;;;;;;;10.00;5.45;;;13.10;99.90;;;;;;5011512;28;20046;-76
2022/10/30 05:33:10;;;;;;;8.27;5.40;;;13.10;99.90;;;;;;5016820;28;20048;-75
2022/10/30 05:35:37;;;;;;;9.32;5.60;;;13.10;99.90;;;;;;5022921;28;20132;-76
2022/10/30 05:38:05;;;;;;;10.45;5.22;;;13.10;99.90;;;;;;5017767;28;20068;-76
2022/10/30 05:40:32;;;;;;;9.27;5.97;;;13.10;99.90;;;;;;5017480;28;20065;-76
2022/10/30 05:42:58;;;;;;;8.02;5.20;;;13.00;99.90;;;;;;5016628;28;20515;-76
2022/10/30 05:45:24;;;;;;;10.30;6.10;;;13.00;99.90;;;;;;5017435;28;20052;-76
2022/10/30 05:47:57;;;;;;;9.88;5.50;;;12.90;99.90;;;;;;5017368;28;20042;-76
2022/10/30 05:50:24;;;;;;;11.18;5.90;;;12.90;99.90;;;;;;5018346;28;20128;-76
2022/10/30 05:52:57;;;;;;;9.57;5.80;;;12.90;99.90;;;;;;5018082;28;20053;-76
2022/10/30 05:55:24;;;;;;;8.52;6.32;;;13.00;99.90;;;;;;5017648;28;20042;-78
2022/10/30 05:57:53;;;;;;;8.45;5.30;;;13.10;99.90;;;;;;5017623;28;20050;-75
2022/10/30 06:00:19;;;;;;;9.50;5.97;;;13.10;99.90;;;;;;5017516;28;20048;-76
2022/10/30 06:02:45;;;;;;;9.02;5.60;;;13.10;99.90;;;;;;5017002;28;20049;-76
2022/10/30 06:05:10;;;;;;;10.18;5.28;;;13.10;99.90;;;;;;5017710;28;20052;-77
2022/10/30 06:07:36;;;;;;;9.68;5.60;;;13.10;99.90;;;;;;5019716;28;20100;-76
2022/10/30 06:10:02;;;;;;;12.60;6.28;;;13.10;99.90;;;;;;5019583;28;20113;-76
2022/10/30 06:12:27;;;;;;;8.07;6.07;;;13.10;99.90;;;;;;5021502;28;20064;-77
2022/10/30 06:14:53;;;;;;;9.20;5.75;;;13.10;99.90;;;;;;5034761;28;20452;-76
2022/10/30 06:17:19;;;;;;;10.88;5.88;;;13.10;99.90;;;;;;5037138;28;20052;-76
2022/10/30 06:19:44;;;;;;;8.90;6.05;;;13.10;99.90;;;;;;5024387;28;20053;-77
2022/10/30 06:22:10;;;;;;;11.95;6.35;;;13.10;99.90;;;;;;5029665;28;20053;-77
2022/10/30 06:24:35;;;;;;;12.07;6.22;;;13.10;99.90;;;;;;5036803;28;20045;-77
2022/10/30 06:27:01;;;;;;;12.05;6.43;;;13.10;99.90;;;;;;5037209;28;20077;-77
2022/10/30 06:29:27;;;;;;;13.35;6.72;;;13.10;99.90;;;;;;5037133;28;20045;-77
2022/10/30 06:31:52;;;;;;;10.68;6.20;;;13.20;99.90;;;;;;5033453;28;20045;-77
2022/10/30 06:34:18;;;;;;;14.40;6.03;;;13.20;99.90;;;;;;5036726;28;20402;-78
2022/10/30 06:36:44;;;;;;;11.40;6.15;;;13.20;99.90;;;;;;5033162;28;20052;-77
2022/10/30 06:39:09;;;;;;;12.38;7.00;;;13.20;99.90;;;;;;4999497;28;20462;-77
2022/10/30 06:41:35;;;;;;;11.55;6.68;;;13.20;99.90;;;;;;5035311;28;20045;-78
2022/10/30 06:44:01;;;;;;;8.93;6.13;;;13.20;99.90;;;;;;5033453;28;20551;-78
2022/10/30 06:46:26;;;;;;;10.50;6.32;;;13.20;99.90;;;;;;5033454;28;20064;-77
2022/10/30 06:48:52;;;;;;;12.70;6.90;;;13.30;99.90;;;;;;5028075;28;20048;-78
2022/10/30 06:51:18;;;;;;;10.27;6.43;;;13.30;99.90;;;;;;5013952;28;20041;-77
2022/10/30 06:53:43;;;;;;;11.73;6.80;;;13.30;99.90;;;;;;5033563;28;20095;-78
2022/10/30 06:56:09;;;;;;;10.48;6.80;;;13.30;99.90;;;;;;5033425;28;20052;-77
2022/10/30 06:58:37;;;;;;;10.13;6.30;;;13.30;99.90;;;;;;5033297;28;20084;-77
2022/10/30 07:01:07;;;;;;;10.05;6.55;;;13.30;99.90;;;;;;5015677;28;20049;-77
2022/10/30 07:03:33;;;;;;;10.18;6.75;;;13.30;99.90;;;;;;5033164;28;20054;-77
2022/10/30 07:05:59;;;;;;;11.95;7.22;;;13.30;99.90;;;;;;5033517;28;20057;-77
2022/10/30 07:08:25;;;;;;;9.15;6.60;;;13.40;99.90;;;;;;4994264;28;20054;-77
2022/10/30 07:10:51;;;;;;;10.35;6.78;;;13.40;99.90;;;;;;5010352;28;20053;-77
2022/10/30 07:13:17;;;;;;;9.48;6.55;;;13.40;99.90;;;;;;5023950;28;20041;-66
2022/10/30 07:15:42;;;;;;;9.95;6.47;;;13.50;99.90;;;;;;5019307;28;20073;-65
2022/10/30 07:18:09;;;;;;;10.27;6.72;;;13.50;99.90;;;;;;5032459;28;20104;-65
2022/10/30 07:20:35;;;;;;;12.70;7.25;;;13.50;99.90;;;;;;5033122;28;20055;-66
2022/10/30 07:23:02;;;;;;;9.25;6.40;;;13.60;99.90;;;;;;5032517;28;20049;-65
2022/10/30 07:25:28;;;;;;;8.98;6.07;;;13.60;99.90;;;;;;5032645;28;20045;-65
2022/10/30 07:27:55;;;;;;;9.45;6.30;;;13.70;99.90;;;;;;5032950;28;20057;-66
2022/10/30 07:30:23;;;;;;;10.98;6.45;;;13.80;99.90;;;;;;5032565;28;20096;-65
2022/10/30 07:33:00;;;;;;;12.85;6.75;;;13.80;99.90;;;;;;5032980;28;20091;-66
2022/10/30 07:35:26;;;;;;;9.65;6.55;;;13.90;99.90;;;;;;5014897;28;20464;-66
2022/10/30 07:37:52;;;;;;;10.98;6.80;;;13.90;99.90;;;;;;5032757;28;20194;-66
2022/10/30 07:40:18;;;;;;;12.57;6.38;;;14.00;99.90;;;;;;5019080;28;20140;-66
2022/10/30 07:42:43;;;;;;;11.88;6.85;;;14.10;99.90;;;;;;5004538;28;20049;-66
2022/10/30 07:45:09;;;;;;;13.55;7.10;;;14.10;99.90;;;;;;5032210;28;20104;-66
2022/10/30 07:47:44;;;;;;;13.95;6.95;;;14.20;99.90;;;;;;5032743;28;20053;-66
2022/10/30 07:50:10;;;;;;;10.13;6.88;;;14.20;99.90;;;;;;5014965;28;20053;-66
2022/10/30 07:52:36;;;;;;;9.90;6.72;;;14.30;99.90;;;;;;5032427;28;20045;-66
2022/10/30 07:55:02;;;;;;;10.52;7.15;;;14.30;99.90;;;;;;5012192;28;20048;-66
2022/10/30 07:57:34;;;;;;;10.98;7.03;;;14.30;99.90;;;;;;5008165;28;20061;-66
2022/10/30 07:59:59;;;;;;;10.70;7.10;;;14.40;99.90;;;;;;5031729;28;20051;-67
2022/10/30 08:02:25;;;;;;;14.23;8.15;;;14.40;99.90;;;;;;5001979;28;20050;-66
2022/10/30 08:04:50;;;;;;;10.65;6.75;;;14.40;99.90;;;;;;5019719;28;20037;-66
2022/10/30 08:07:16;;;;;;;11.40;6.32;;;14.50;99.90;;;;;;4999114;28;20050;-66
2022/10/30 08:09:42;;;;;;;11.85;6.68;;;14.60;99.90;;;;;;5010552;28;20067;-66
2022/10/30 08:12:07;;;;;;;12.88;6.75;;;14.70;99.90;;;;;;5015435;28;20461;-66
2022/10/30 08:14:33;;;;;;;12.30;6.35;;;14.80;99.90;;;;;;5012026;28;20510;-66
2022/10/30 08:16:59;;;;;;;11.88;7.00;;;14.90;99.90;;;;;;5010475;28;20491;-66
2022/10/30 08:19:25;;;;;;;9.57;6.00;;;14.90;99.90;;;;;;5010617;28;20045;-66
2022/10/30 08:21:50;;;;;;;10.93;6.63;;;15.00;99.90;;;;;;5029417;28;20132;-66
2022/10/30 08:24:16;;;;;;;11.98;7.38;;;15.10;99.90;;;;;;5016025;28;20049;-66
2022/10/30 08:26:42;;;;;;;13.32;6.95;;;15.20;99.90;;;;;;4997921;28;20049;-66
2022/10/30 08:29:07;;;;;;;11.32;6.85;;;15.20;99.90;;;;;;5019423;28;20046;-66
2022/10/30 08:31:33;;;;;;;9.68;7.22;;;15.30;99.90;;;;;;5022859;28;20047;-66
2022/10/30 08:33:59;;;;;;;11.30;6.68;;;15.40;99.90;;;;;;5030621;28;20129;-66
2022/10/30 08:36:24;;;;;;;9.63;6.35;;;15.40;99.90;;;;;;5013489;28;20087;-67
2022/10/30 08:38:50;;;;;;;10.18;6.57;;;15.50;99.90;;;;;;5030293;28;20155;-67
2022/10/30 08:41:16;;;;;;;12.40;6.90;;;15.60;99.90;;;;;;5031388;28;20410;-67
2022/10/30 08:43:41;;;;;;;11.50;7.18;;;15.80;99.90;;;;;;5029795;28;20040;-67
2022/10/30 08:46:07;;;;;;;11.73;6.63;;;15.80;99.90;;;;;;5024759;28;20084;-67
2022/10/30 08:48:32;;;;;;;9.98;6.78;;;15.90;99.90;;;;;;5025688;28;20042;-67
2022/10/30 08:51:02;;;;;;;11.80;6.90;;;16.00;99.90;;;;;;5001198;28;20099;-65
2022/10/30 08:53:27;;;;;;;11.68;7.40;;;16.10;99.90;;;;;;5022749;28;20230;-65
2022/10/30 08:55:53;;;;;;;12.20;6.95;;;16.10;99.90;;;;;;5021613;28;20061;-66
2022/10/30 08:58:19;;;;;;;12.27;7.72;;;16.20;99.90;;;;;;5002353;28;20073;-66
2022/10/30 09:00:44;;;;;;;12.73;7.15;;;16.20;99.90;;;;;;5030455;28;20033;-65
2022/10/30 09:03:10;;;;;;;11.85;6.90;;;16.20;99.90;;;;;;5021080;28;20443;-65
2022/10/30 09:05:36;;;;;;;12.10;6.90;;;16.20;99.90;;;;;;5004896;28;20068;-66
2022/10/30 09:08:02;;;;;;;13.10;6.85;;;16.20;99.90;;;;;;5012446;28;20128;-65
2022/10/30 09:10:28;;;;;;;10.65;7.00;;;16.30;99.90;;;;;;5013553;28;20128;-66
2022/10/30 09:12:58;;;;;;;9.77;6.97;;;16.40;99.90;;;;;;5028703;28;20432;-67
2022/10/30 09:15:25;;;;;;;10.00;6.60;;;16.40;99.90;;;;;;4998392;28;20062;-66
2022/10/30 09:17:58;;;;;;;13.77;7.28;;;16.50;99.90;;;;;;5022442;28;20509;-67
2022/10/30 09:20:24;;;;;;;12.32;7.05;;;16.50;99.90;;;;;;5015201;28;20643;-67
2022/10/30 09:22:50;;;;;;;10.57;6.80;;;16.60;99.90;;;;;;5024356;28;20056;-67
2022/10/30 09:25:16;;;;;;;9.65;6.32;;;16.70;99.90;;;;;;5007202;28;20034;-67
2022/10/30 09:27:42;;;;;;;12.48;7.65;;;16.70;99.90;;;;;;5023689;28;20133;-67
2022/10/30 09:30:09;;;;;;;9.82;6.55;;;16.80;99.90;;;;;;5012759;28;20125;-67
2022/10/30 09:32:34;;;;;;;10.25;6.40;;;16.80;99.90;;;;;;5012287;28;20132;-67
2022/10/30 09:35:00;;;;;;;11.18;6.88;;;16.80;99.90;;;;;;5030193;28;20562;-67
2022/10/30 09:37:26;;;;;;;10.30;6.38;;;17.00;99.90;;;;;;5030054;28;20398;-67
2022/10/30 09:39:52;;;;;;;11.65;6.13;;;17.20;99.90;;;;;;5030165;28;20860;-66
2022/10/30 09:42:40;;;;;;;11.15;6.18;;;17.50;99.90;;;;;;5019118;28;20474;-66
2022/10/30 09:45:08;;;;;;;12.60;6.90;;;17.90;99.90;;;;;;5029099;28;20163;-67
2022/10/30 09:47:47;;;;;;;11.13;6.60;;;18.20;99.90;;;;;;5030010;28;20050;-67
2022/10/30 09:50:33;;;;;;;10.75;6.63;;;18.60;99.90;;;;;;5022508;28;20046;-67
2022/10/30 09:53:24;;;;;;;11.27;6.30;;;18.80;99.90;;;;;;5025881;28;20100;-67
2022/10/30 09:55:54;;;;;;;10.63;5.68;;;19.20;99.90;;;;;;5010685;28;20089;-66
2022/10/30 09:58:41;;;;;;;9.75;6.10;;;19.50;99.90;;;;;;5017539;28;20053;-66
2022/10/30 10:01:27;;;;;;;9.15;5.65;;;19.80;99.90;;;;;;5013079;28;20407;-66
2022/10/30 10:04:18;;;;;;;11.98;6.22;;;20.10;99.90;;;;;;5029792;28;20048;-67
2022/10/30 10:06:47;;;;;;;10.52;5.57;;;20.20;99.90;;;;;;5029649;28;20100;-66
2022/10/30 10:09:20;;;;;;;11.05;5.50;;;20.10;99.90;;;;;;5029714;28;20084;-67
2022/10/30 10:12:10;;;;;;;9.65;5.75;;;19.90;99.90;;;;;;5030314;28;20452;-67
2022/10/30 10:14:41;;;;;;;8.95;5.32;;;19.80;99.90;;;;;;5021787;28;20049;-67
2022/10/30 10:17:14;;;;;;;11.80;5.75;;;19.60;99.90;;;;;;4991764;28;20052;-67
2022/10/30 10:20:00;;;;;;;9.57;6.10;;;19.40;99.90;;;;;;5028151;28;20124;-67
2022/10/30 10:22:37;;;;;;;7.50;5.60;;;19.30;99.90;;;;;;5032999;28;20053;-67
2022/10/30 10:25:08;;;;;;;9.38;5.60;;;19.10;99.90;;;;;;5016149;28;20049;-67
2022/10/30 10:27:52;;;;;;;11.13;6.00;;;19.00;99.90;;;;;;5033876;28;20136;-67
2022/10/30 10:30:26;;;;;;;11.10;6.25;;;19.00;99.90;;;;;;5017460;28;20061;-67
2022/10/30 10:33:13;;;;;;;12.20;5.53;;;19.00;99.90;;;;;;4999653;28;20056;-66
2022/10/30 10:36:09;;;;;;;9.15;6.40;;;19.10;99.90;;;;;;5026232;28;20056;-68
2022/10/30 10:38:56;;;;;;;12.17;6.40;;;19.10;99.90;;;;;;5015541;28;20486;-67
2022/10/30 10:41:54;;;;;;;11.77;5.97;;;19.10;99.90;;;;;;5033638;28;20087;-67
2022/10/30 10:44:31;;;;;;;10.27;5.78;;;19.30;99.90;;;;;;5026155;28;20042;-68
2022/10/30 10:47:23;;;;;;;10.88;6.25;;;19.50;99.90;;;;;;5015861;28;20053;-67
2022/10/30 10:50:30;;;;;;;10.95;6.30;;;19.50;99.90;;;;;;5004133;28;20124;-66
2022/10/30 10:53:02;;;;;;;;;;;19.40;99.90;;;;;;5025044;28;20514;-67
2022/10/30 10:55:32;;;;;;;10.10;5.65;;;19.30;99.90;;;;;;5027920;28;20020;-66
2022/10/30 10:58:22;;;;;;;11.02;6.10;;;19.30;99.90;;;;;;5027134;28;20091;-67
2022/10/30 11:00:47;;;;;;;9.65;5.68;;;19.20;99.90;;;;;;5032970;28;20045;-67
2022/10/30 11:03:24;;;;;;;10.93;5.93;;;19.20;99.90;;;;;;5033167;28;20456;-67
2022/10/30 11:05:57;;;;;;;11.63;5.63;;;19.20;99.90;;;;;;5011491;28;20049;-67
2022/10/30 11:08:28;;;;;;;10.40;6.10;;;19.30;99.90;;;;;;5013216;28;20520;-68
2022/10/30 11:10:59;;;;;;;8.77;5.10;;;19.30;99.90;;;;;;4998012;28;20089;-68
2022/10/30 11:13:33;;;;;;;8.90;5.32;;;19.40;99.90;;;;;;5022360;28;20383;-67
2022/10/30 11:16:30;;;;;;;10.38;5.63;;;19.40;99.90;;;;;;5005972;28;20033;-67
2022/10/30 11:19:02;;;;;;;9.40;5.30;;;19.40;99.90;;;;;;5033221;28;20050;-67
2022/10/30 11:21:31;;;;;;;9.25;5.07;;;19.30;99.90;;;;;;5032761;28;20060;-68
2022/10/30 11:23:57;;;;;;;9.60;5.72;;;19.30;99.90;;;;;;5032777;28;20512;-68
2022/10/30 11:26:23;;;;;;;14.77;6.28;;;19.30;99.90;;;;;;5016389;28;20045;-67
2022/10/30 11:28:56;;;;;;;9.77;5.53;;;19.30;99.90;;;;;;4986058;28;20077;-68
2022/10/30 11:31:33;;;;;;;7.10;5.40;;;19.30;99.90;;;;;;5014827;28;20054;-66
2022/10/30 11:34:11;;;;;;;10.52;5.68;;;19.30;99.90;;;;;;4995349;28;20050;-66
2022/10/30 11:36:37;;;;;;;8.13;5.47;;;19.30;99.90;;;;;;5012893;28;20042;-66
2022/10/30 11:39:29;;;;;;;11.27;5.55;;;19.30;99.90;;;;;;5012499;28;20058;-66
2022/10/30 11:42:03;;;;;;;13.93;5.88;;;19.40;99.90;;;;;;5015747;28;20053;-66
2022/10/30 11:44:39;;;;;;;9.13;5.72;;;19.40;99.90;;;;;;5032279;28;20038;-66
2022/10/30 11:47:06;;;;;;;13.15;6.13;;;19.40;99.90;;;;;;5016246;28;20092;-66
2022/10/30 11:49:41;;;;;;;8.52;5.43;;;19.40;99.90;;;;;;5012201;28;20059;-67
2022/10/30 11:52:08;;;;;;;9.98;4.88;;;19.40;99.90;;;;;;5012690;28;20054;-66
2022/10/30 11:54:38;;;;;;;9.10;5.00;;;19.40;99.90;;;;;;5008269;28;20085;-65
2022/10/30 11:57:16;;;;;;;11.93;5.35;;;19.40;99.90;;;;;;5012394;28;20498;-66
2022/10/30 11:59:45;;;;;;;10.02;5.43;;;19.40;99.90;;;;;;5011221;28;20042;-67
2022/10/30 12:02:27;;;;;;;9.25;5.47;;;19.40;99.90;;;;;;5010713;28;20045;-66
2022/10/30 12:04:54;;;;;;;7.32;4.88;;;19.40;99.90;;;;;;5012318;28;20445;-66
2022/10/30 12:07:28;;;;;;;11.50;4.78;;;19.40;99.90;;;;;;5012763;28;20041;-66
2022/10/30 12:09:56;;;;;;;7.40;5.18;;;19.40;99.90;;;;;;5011886;28;20125;-66
2022/10/30 12:12:42;;;;;;;8.07;4.18;;;19.40;99.90;;;;;;5011730;28;20111;-66
2022/10/30 12:15:18;;;;;;;9.52;5.57;;;19.50;99.90;;;;;;5018187;28;20053;-66
2022/10/30 12:17:54;;;;;;;;;;;19.60;99.90;;;;;;5032606;28;20085;-66
2022/10/30 12:20:20;;;;;;;9.02;5.03;;;19.70;99.90;;;;;;5032311;28;19925;-66
2022/10/30 12:22:46;;;;;;;9.95;5.32;;;19.70;99.90;;;;;;5032156;28;20089;-67
2022/10/30 12:25:28;;;;;;;9.95;4.90;;;19.70;99.90;;;;;;5032194;28;20079;-67
2022/10/30 12:28:14;;;;;;;10.18;4.60;;;19.80;99.90;;;;;;5031878;28;20053;-67
2022/10/30 12:31:07;;;;;;;10.05;5.13;;;19.80;99.90;;;;;;5014320;28;20053;-66
2022/10/30 12:33:44;;;;;;;8.90;4.65;;;19.70;99.90;;;;;;5032387;28;20049;-66
2022/10/30 12:36:15;;;;;;;8.07;4.57;;;19.70;99.90;;;;;;5031955;28;20057;-66
2022/10/30 12:39:08;;;;;;;9.68;4.68;;;19.70;99.90;;;;;;5030411;28;20041;-66
2022/10/30 12:42:12;;;;;;;9.88;5.00;;;19.70;99.90;;;;;;5011251;28;20120;-66
2022/10/30 12:44:50;;;;;;;8.32;4.82;;;19.80;99.90;;;;;;5007012;28;20042;-66
2022/10/30 12:47:49;;;;;;;10.32;4.90;;;19.70;99.90;;;;;;5010274;28;20458;-66
2022/10/30 12:50:26;;;;;;;8.18;5.03;;;19.70;99.90;;;;;;5011635;28;20057;-66
2022/10/30 12:53:08;;;;;;;8.75;5.05;;;19.50;99.90;;;;;;5009180;28;20048;-66
2022/10/30 12:55:46;;;;;;;10.40;5.38;;;19.50;99.90;;;;;;5008879;28;20046;-66
2022/10/30 12:58:42;;;;;;;8.57;5.53;;;19.50;99.90;;;;;;5008392;28;20049;-66